Time;durP1;ratioP1;P1;durP2;ratioP2;P2;SDS_P1;SDS_P2;PMS_P1;PMS_P2;Temp;Humidity;BMP_temperature;BMP_pressure;BME280_temperature;BME280_humidity;BME280_pressure;Samples;Min_cycle;Max_cycle;Signal;HPM_P1;HPM_P2
2021/06/15 00:01:33;;;;;;;4.28;3.03;;;13.70;99.90;;;;;;5034645;28;20052;-47
2021/06/15 00:03:59;;;;;;;3.50;2.75;;;13.70;99.90;;;;;;5034464;28;20028;-43
2021/06/15 00:06:25;;;;;;;5.30;3.10;;;13.70;99.90;;;;;;5034339;28;20029;-45
2021/06/15 00:08:51;;;;;;;4.68;2.63;;;13.70;99.90;;;;;;5033425;28;20099;-44
2021/06/15 00:11:16;;;;;;;5.13;3.38;;;13.60;99.90;;;;;;5033552;28;20469;-45
2021/06/15 00:13:42;;;;;;;3.78;2.40;;;13.60;99.90;;;;;;5021169;28;20051;-45
2021/06/15 00:16:07;;;;;;;4.47;3.28;;;13.50;99.90;;;;;;5034398;28;20022;-43
2021/06/15 00:18:34;;;;;;;3.83;2.85;;;13.50;99.90;;;;;;5036156;28;20416;-46
2021/06/15 00:21:00;;;;;;;5.93;3.80;;;13.50;99.90;;;;;;5054476;28;20357;-46
2021/06/15 00:23:25;;;;;;;4.75;2.75;;;13.50;99.90;;;;;;5053981;28;20035;-45
2021/06/15 00:25:51;;;;;;;5.55;3.15;;;13.40;99.90;;;;;;5053137;28;20048;-47
2021/06/15 00:28:19;;;;;;;5.05;3.25;;;13.40;99.90;;;;;;5053984;28;20025;-45
2021/06/15 00:30:44;;;;;;;4.03;2.80;;;13.40;99.90;;;;;;5053986;28;20054;-45
2021/06/15 00:33:10;;;;;;;4.07;2.50;;;13.40;99.90;;;;;;5053829;28;20021;-46
2021/06/15 00:35:35;;;;;;;5.28;3.35;;;13.30;99.90;;;;;;5047971;28;20082;-45
2021/06/15 00:38:01;;;;;;;3.22;2.30;;;13.30;99.90;;;;;;5034085;28;20021;-47
2021/06/15 00:40:26;;;;;;;4.10;3.10;;;13.30;99.90;;;;;;5032908;28;20026;-46
2021/06/15 00:42:52;;;;;;;3.10;2.60;;;13.30;99.90;;;;;;5034107;28;20029;-45
2021/06/15 00:45:23;;;;;;;4.80;2.53;;;13.30;99.90;;;;;;5033212;28;20029;-44
2021/06/15 00:47:50;;;;;;;3.97;2.42;;;13.30;99.90;;;;;;5033952;28;20025;-45
2021/06/15 00:50:17;;;;;;;4.82;3.58;;;13.30;99.90;;;;;;5033599;28;20424;-48
2021/06/15 00:52:43;;;;;;;5.82;3.67;;;13.20;99.90;;;;;;5033724;28;20025;-45
2021/06/15 00:55:09;;;;;;;4.97;3.25;;;13.20;99.90;;;;;;5033532;28;20036;-48
2021/06/15 00:57:34;;;;;;;4.63;3.08;;;13.10;99.90;;;;;;5032948;28;20029;-43
2021/06/15 01:00:00;;;;;;;5.20;3.30;;;13.10;99.90;;;;;;5033470;28;20124;-44
2021/06/15 01:02:29;;;;;;;5.07;3.08;;;13.10;99.90;;;;;;5033661;28;20418;-44
2021/06/15 01:04:56;;;;;;;8.38;3.30;;;13.00;99.90;;;;;;5033344;28;20029;-43
2021/06/15 01:07:33;;;;;;;6.80;3.55;;;13.00;99.90;;;;;;5033297;28;20041;-45
2021/06/15 01:10:05;;;;;;;5.10;3.20;;;13.00;99.90;;;;;;5033375;28;20026;-43
2021/06/15 01:13:13;;;;;;;5.15;2.90;;;13.00;99.90;;;;;;5032567;28;20477;-47
2021/06/15 01:15:45;;;;;;;4.72;3.30;;;12.90;99.90;;;;;;5033024;28;20045;-46
2021/06/15 01:18:17;;;;;;;4.45;3.17;;;12.90;99.90;;;;;;5033419;28;20095;-43
2021/06/15 01:20:49;;;;;;;3.95;2.45;;;12.90;99.90;;;;;;5053105;28;20379;-44
2021/06/15 01:23:28;;;;;;;4.53;2.97;;;12.90;99.90;;;;;;5052785;28;20061;-44
2021/06/15 01:26:27;;;;;;;4.28;2.45;;;12.80;99.90;;;;;;5051898;28;20079;-45
2021/06/15 01:29:06;;;;;;;6.72;3.47;;;12.80;99.90;;;;;;5052996;28;20053;-47
2021/06/15 01:31:52;;;;;;;4.00;2.95;;;12.80;99.90;;;;;;5053064;28;20098;-46
2021/06/15 01:34:27;;;;;;;3.78;2.78;;;12.80;99.90;;;;;;5052398;28;20045;-47
2021/06/15 01:36:59;;;;;;;3.65;2.53;;;12.70;99.90;;;;;;5036393;28;20044;-45
2021/06/15 01:39:28;;;;;;;7.55;3.30;;;12.70;99.90;;;;;;5032645;28;20037;-45
2021/06/15 01:42:18;;;;;;;5.05;3.58;;;12.70;99.90;;;;;;5032020;28;20049;-43
2021/06/15 01:44:50;;;;;;;4.60;2.90;;;12.70;99.90;;;;;;5032721;28;20026;-45
2021/06/15 01:47:16;;;;;;;6.30;3.08;;;12.70;99.90;;;;;;5032842;28;20067;-45
2021/06/15 01:49:51;;;;;;;3.30;2.92;;;12.70;99.90;;;;;;5033483;28;20037;-47
2021/06/15 01:52:18;;;;;;;4.93;2.63;;;12.60;99.90;;;;;;5033592;28;20026;-44
2021/06/15 01:54:45;;;;;;;5.93;3.40;;;12.60;99.90;;;;;;5044773;28;20048;-46
2021/06/15 01:57:12;;;;;;;3.63;3.25;;;12.60;99.90;;;;;;5051754;28;20024;-45
2021/06/15 01:59:40;;;;;;;3.58;2.80;;;12.60;99.90;;;;;;5053032;28;20121;-43
2021/06/15 02:02:07;;;;;;;2.97;2.42;;;12.60;99.90;;;;;;5053541;28;20472;-46
2021/06/15 02:04:39;;;;;;;4.22;3.15;;;12.60;99.90;;;;;;5052992;28;20033;-45
2021/06/15 02:07:06;;;;;;;4.40;3.50;;;12.60;99.90;;;;;;5053227;28;20029;-45
2021/06/15 02:09:36;;;;;;;6.07;3.38;;;12.60;99.90;;;;;;5053042;28;20028;-45
2021/06/15 02:12:02;;;;;;;6.10;3.08;;;12.60;99.90;;;;;;5052248;28;20511;-47
2021/06/15 02:14:28;;;;;;;6.93;3.78;;;12.60;99.90;;;;;;5052945;28;20037;-47
2021/06/15 02:17:00;;;;;;;6.80;3.35;;;12.60;99.90;;;;;;5053116;28;20472;-43
2021/06/15 02:19:27;;;;;;;5.43;3.20;;;12.60;99.90;;;;;;5052922;28;20104;-48
2021/06/15 02:22:01;;;;;;;3.47;3.05;;;12.60;99.90;;;;;;5053048;28;20036;-44
2021/06/15 02:24:40;;;;;;;5.65;3.58;;;12.60;99.90;;;;;;5052717;28;20021;-46
2021/06/15 02:27:09;;;;;;;5.95;2.80;;;12.60;99.90;;;;;;5052030;28;20413;-45
2021/06/15 02:29:34;;;;;;;4.60;3.40;;;12.60;99.90;;;;;;5052670;28;20029;-43
2021/06/15 02:32:03;;;;;;;2.90;2.65;;;12.60;99.90;;;;;;5052891;28;20094;-45
2021/06/15 02:34:29;;;;;;;7.25;3.03;;;12.60;99.90;;;;;;5052570;28;20025;-43
2021/06/15 02:36:57;;;;;;;6.90;3.20;;;12.60;99.90;;;;;;5034420;28;20469;-43
2021/06/15 02:39:33;;;;;;;6.65;3.25;;;12.60;99.90;;;;;;5032687;28;20026;-45
2021/06/15 02:42:02;;;;;;;7.47;4.18;;;12.50;99.90;;;;;;5031960;28;20017;-47
2021/06/15 02:44:31;;;;;;;6.05;3.38;;;12.50;99.90;;;;;;5032544;28;20026;-45
2021/06/15 02:47:00;;;;;;;6.38;4.07;;;12.50;99.90;;;;;;5032827;28;20025;-46
2021/06/15 02:49:31;;;;;;;4.20;3.38;;;12.50;99.90;;;;;;5032454;28;20469;-45
2021/06/15 02:52:08;;;;;;;5.05;2.97;;;12.50;99.90;;;;;;5032492;28;20060;-45
2021/06/15 02:54:39;;;;;;;4.15;3.17;;;12.50;99.90;;;;;;5042305;28;20032;-44
2021/06/15 02:57:08;;;;;;;5.68;3.40;;;12.60;99.90;;;;;;5051598;28;20025;-44
2021/06/15 02:59:35;;;;;;;4.82;3.47;;;12.60;99.90;;;;;;5052160;28;20372;-47
2021/06/15 03:02:01;;;;;;;3.42;2.88;;;12.60;99.90;;;;;;5052423;28;20021;-49
2021/06/15 03:04:27;;;;;;;5.45;4.15;;;12.60;99.90;;;;;;5052318;28;20440;-45
2021/06/15 03:06:52;;;;;;;4.43;3.40;;;12.70;99.90;;;;;;5052236;28;20036;-47
2021/06/15 03:09:18;;;;;;;7.28;4.75;;;12.70;99.90;;;;;;5054055;28;20096;-43
2021/06/15 03:12:07;;;;;;;4.70;3.10;;;12.70;99.90;;;;;;5055466;28;20032;-43
2021/06/15 03:14:35;;;;;;;3.35;3.00;;;12.70;99.90;;;;;;5056247;28;20065;-44
2021/06/15 03:17:06;;;;;;;5.03;3.22;;;12.80;99.90;;;;;;5056575;28;20456;-46
2021/06/15 03:19:36;;;;;;;4.97;3.20;;;12.80;99.90;;;;;;5056451;28;20060;-45
2021/06/15 03:22:18;;;;;;;3.97;3.53;;;12.90;99.90;;;;;;5056301;28;20100;-44
2021/06/15 03:24:50;;;;;;;4.30;2.97;;;12.90;99.90;;;;;;5056178;28;20048;-43
2021/06/15 03:27:28;;;;;;;7.68;3.60;;;13.00;99.90;;;;;;5055350;28;20048;-49
2021/06/15 03:29:54;;;;;;;4.97;3.70;;;13.00;99.90;;;;;;5056278;28;20070;-45
2021/06/15 03:32:21;;;;;;;6.30;3.90;;;13.10;99.90;;;;;;5056341;28;20115;-42
2021/06/15 03:34:50;;;;;;;6.30;3.88;;;13.20;99.90;;;;;;5055925;28;20100;-45
2021/06/15 03:37:23;;;;;;;3.50;2.97;;;13.30;99.90;;;;;;5036100;28;20022;-47
2021/06/15 03:39:50;;;;;;;4.18;2.90;;;13.40;99.90;;;;;;5036020;28;20029;-45
2021/06/15 03:42:20;;;;;;;5.25;3.53;;;13.40;99.90;;;;;;5035270;28;20025;-45
2021/06/15 03:44:59;;;;;;;4.15;3.75;;;13.50;99.90;;;;;;5035911;28;20030;-46
2021/06/15 03:47:27;;;;;;;6.10;3.85;;;13.60;99.90;;;;;;5036021;28;20552;-45
2021/06/15 03:49:54;;;;;;;4.90;3.60;;;13.70;99.90;;;;;;5035768;28;20065;-46
2021/06/15 03:52:27;;;;;;;5.05;3.17;;;13.80;99.90;;;;;;5035883;28;20036;-43
2021/06/15 03:54:55;;;;;;;3.40;2.78;;;13.90;99.90;;;;;;5048247;28;20211;-46
2021/06/15 03:57:24;;;;;;;3.88;3.00;;;14.00;99.90;;;;;;5054910;28;20435;-44
2021/06/15 03:59:51;;;;;;;4.25;2.97;;;14.10;99.90;;;;;;5055460;28;20049;-43
2021/06/15 04:02:18;;;;;;;4.57;3.58;;;14.20;99.90;;;;;;5055684;28;20506;-46
2021/06/15 04:04:47;;;;;;;4.03;3.00;;;14.30;99.90;;;;;;5055498;28;20033;-43
2021/06/15 04:07:17;;;;;;;5.13;3.55;;;14.40;99.90;;;;;;5055584;28;20029;-43
2021/06/15 04:09:45;;;;;;;5.57;3.63;;;14.50;99.90;;;;;;5055319;28;20069;-46
2021/06/15 04:12:12;;;;;;;5.30;3.45;;;14.70;99.90;;;;;;5046848;28;20068;-44
2021/06/15 04:14:38;;;;;;;6.13;3.10;;;14.90;99.90;;;;;;5035056;28;20036;-44
2021/06/15 04:17:06;;;;;;;5.97;3.78;;;14.90;99.90;;;;;;5034998;28;20025;-43
2021/06/15 04:19:37;;;;;;;3.53;3.22;;;15.10;99.90;;;;;;5034271;28;20026;-43
2021/06/15 04:22:05;;;;;;;5.18;4.18;;;15.20;99.90;;;;;;5035124;28;20025;-44
2021/06/15 04:24:31;;;;;;;4.07;3.20;;;15.40;99.90;;;;;;5034937;28;20500;-43
2021/06/15 04:26:59;;;;;;;7.57;3.83;;;15.50;99.90;;;;;;5034017;28;20044;-48
2021/06/15 04:29:25;;;;;;;4.20;3.13;;;15.60;99.90;;;;;;5035033;28;20101;-44
2021/06/15 04:31:56;;;;;;;5.22;3.35;;;15.70;99.90;;;;;;5034740;28;20109;-44
2021/06/15 04:34:25;;;;;;;5.93;3.70;;;15.90;99.90;;;;;;5035059;28;20409;-45
2021/06/15 04:37:03;;;;;;;6.80;3.55;;;16.10;99.90;;;;;;5034631;28;20022;-44
2021/06/15 04:39:31;;;;;;;5.57;3.53;;;16.60;99.90;;;;;;5034898;28;20101;-43
2021/06/15 04:41:56;;;;;;;5.93;3.38;;;17.50;99.90;;;;;;5033819;28;20120;-46
2021/06/15 04:44:26;;;;;;;5.90;3.42;;;18.20;99.90;;;;;;5034555;28;20131;-49
2021/06/15 04:46:58;;;;;;;8.30;4.32;;;18.70;99.90;;;;;;5034455;28;20044;-45
2021/06/15 04:49:41;;;;;;;4.72;3.30;;;19.10;99.90;;;;;;5034748;28;20507;-43
2021/06/15 04:52:07;;;;;;;4.90;3.70;;;19.60;99.90;;;;;;5034682;28;20036;-47
2021/06/15 04:54:36;;;;;;;4.18;3.35;;;20.20;99.90;;;;;;5034358;28;20073;-48
2021/06/15 04:57:07;;;;;;;5.30;3.95;;;20.40;99.90;;;;;;5033653;28;20103;-45
2021/06/15 04:59:34;;;;;;;4.43;3.20;;;20.70;99.90;;;;;;5034596;28;20029;-51
2021/06/15 05:02:00;;;;;;;5.65;3.13;;;21.10;99.70;;;;;;5034456;28;20120;-44
2021/06/15 05:04:26;;;;;;;9.07;3.67;;;21.30;97.90;;;;;;5034548;28;20456;-43
2021/06/15 05:06:52;;;;;;;4.30;3.30;;;21.60;96.90;;;;;;5034294;28;20033;-48
2021/06/15 05:09:23;;;;;;;6.80;3.67;;;21.80;95.10;;;;;;5034274;28;20059;-46
2021/06/15 05:11:49;;;;;;;6.65;3.42;;;22.30;93.30;;;;;;5033307;28;20021;-45
2021/06/15 05:14:17;;;;;;;5.38;3.30;;;23.20;91.30;;;;;;5034328;28;20069;-46
2021/06/15 05:16:44;;;;;;;5.82;3.60;;;24.20;86.50;;;;;;5029279;28;20056;-43
2021/06/15 05:19:09;;;;;;;4.57;3.13;;;25.70;81.30;;;;;;5034151;28;20116;-45
2021/06/15 05:21:51;;;;;;;4.10;3.10;;;27.30;76.00;;;;;;5033709;28;20102;-45
2021/06/15 05:24:31;;;;;;;4.85;3.72;;;28.10;69.60;;;;;;5033273;28;20037;-46
2021/06/15 05:26:58;;;;;;;3.60;3.05;;;28.40;70.50;;;;;;5032495;28;20083;-47
2021/06/15 05:29:24;;;;;;;4.82;3.88;;;28.90;69.50;;;;;;5033994;28;20033;-46
2021/06/15 05:31:49;;;;;;;4.45;3.30;;;29.20;68.30;;;;;;5033647;28;20030;-44
2021/06/15 05:34:15;;;;;;;4.90;3.53;;;29.20;67.40;;;;;;5033644;28;20033;-46
2021/06/15 05:36:41;;;;;;;5.10;3.17;;;29.10;67.10;;;;;;5030481;28;20070;-45
2021/06/15 05:39:06;;;;;;;3.08;2.78;;;29.10;66.80;;;;;;5033631;28;20116;-45
2021/06/15 05:41:32;;;;;;;6.82;4.05;;;29.40;66.20;;;;;;5032763;28;20112;-46
2021/06/15 05:43:58;;;;;;;8.35;3.90;;;29.70;65.10;;;;;;5033802;28;20044;-44
2021/06/15 05:46:23;;;;;;;5.10;3.85;;;30.00;63.50;;;;;;5033560;28;20033;-46
2021/06/15 05:48:49;;;;;;;3.85;3.17;;;29.80;62.70;;;;;;5033437;28;20508;-46
2021/06/15 05:51:15;;;;;;;4.53;3.13;;;29.80;62.80;;;;;;5033638;28;20099;-46
2021/06/15 05:53:40;;;;;;;5.65;3.38;;;30.20;62.00;;;;;;5036131;28;20029;-44
2021/06/15 05:56:06;;;;;;;5.45;3.97;;;30.80;60.80;;;;;;5052244;28;20082;-44
2021/06/15 05:58:31;;;;;;;4.07;2.92;;;31.50;59.40;;;;;;5053410;28;20081;-48
2021/06/15 06:00:56;;;;;;;4.20;3.28;;;32.10;58.20;;;;;;5053111;28;20094;-48
2021/06/15 06:03:30;;;;;;;4.82;2.90;;;32.40;57.70;;;;;;5053041;28;20108;-46
2021/06/15 06:08:40;;;;;;;6.28;3.03;;;32.60;55.60;;;;;;5053573;28;20059;-44
2021/06/15 06:11:05;;;;;;;4.05;3.63;;;32.70;55.40;;;;;;5052050;28;20040;-46
2021/06/15 06:13:31;;;;;;;6.45;3.28;;;32.60;53.80;;;;;;5053129;28;20128;-48
2021/06/15 06:16:01;;;;;;;4.13;3.35;;;32.50;54.30;;;;;;5052861;28;20514;-44
2021/06/15 06:18:27;;;;;;;4.95;3.10;;;32.00;54.40;;;;;;5053221;28;20078;-45
2021/06/15 06:20:52;;;;;;;3.17;2.72;;;31.20;55.20;;;;;;5052910;28;20037;-44
2021/06/15 06:23:19;;;;;;;4.35;2.83;;;30.70;55.30;;;;;;5053064;28;20065;-46
2021/06/15 06:25:46;;;;;;;3.63;2.80;;;30.70;55.10;;;;;;5051762;28;20039;-43
2021/06/15 06:28:11;;;;;;;4.53;3.40;;;30.80;54.80;;;;;;5052757;28;20028;-46
2021/06/15 06:30:37;;;;;;;3.42;3.00;;;31.40;54.00;;;;;;5052639;28;20464;-46
2021/06/15 06:33:03;;;;;;;3.47;3.17;;;31.90;53.10;;;;;;5052485;28;20395;-45
2021/06/15 06:35:29;;;;;;;5.30;3.13;;;32.40;52.20;;;;;;5047829;28;20028;-44
2021/06/15 06:37:54;;;;;;;4.30;3.05;;;32.70;51.80;;;;;;5032574;28;20025;-46
2021/06/15 06:40:20;;;;;;;5.00;3.40;;;32.70;51.60;;;;;;5031822;28;20393;-44
2021/06/15 06:42:46;;;;;;;6.88;3.17;;;32.30;51.50;;;;;;5032001;28;20134;-48
2021/06/15 06:45:11;;;;;;;3.78;3.22;;;31.80;51.80;;;;;;5032387;28;20120;-46
2021/06/15 06:47:37;;;;;;;3.90;3.50;;;31.10;52.20;;;;;;5032513;28;20385;-46
2021/06/15 06:50:04;;;;;;;4.03;3.13;;;30.70;52.70;;;;;;5032489;28;20078;-44
2021/06/15 06:52:31;;;;;;;7.55;3.72;;;30.30;53.10;;;;;;5032428;28;20035;-46
2021/06/15 06:54:56;;;;;;;4.15;3.38;;;29.80;53.50;;;;;;5045454;28;20066;-44
2021/06/15 06:57:22;;;;;;;4.90;3.88;;;29.30;54.00;;;;;;5051189;28;20017;-45
2021/06/15 06:59:47;;;;;;;5.57;3.33;;;28.90;54.60;;;;;;5052054;28;20072;-46
2021/06/15 07:02:13;;;;;;;5.20;3.35;;;28.60;55.00;;;;;;5052196;28;20017;-47
2021/06/15 07:04:38;;;;;;;3.83;3.03;;;28.40;55.00;;;;;;5052363;28;20044;-49
2021/06/15 07:07:04;;;;;;;4.20;3.00;;;28.40;55.30;;;;;;5051982;28;20029;-46
2021/06/15 07:09:29;;;;;;;4.03;3.15;;;28.30;55.50;;;;;;5052271;28;20119;-44
2021/06/15 07:11:55;;;;;;;4.38;2.90;;;28.20;55.70;;;;;;5050890;28;20025;-45
2021/06/15 07:14:21;;;;;;;5.55;3.30;;;28.10;55.90;;;;;;5052292;28;20357;-46
2021/06/15 07:16:46;;;;;;;7.97;3.83;;;28.10;56.40;;;;;;5051836;28;20029;-47
2021/06/15 07:19:12;;;;;;;6.80;3.33;;;28.10;56.20;;;;;;5052166;28;20108;-44
2021/06/15 07:21:37;;;;;;;4.05;3.15;;;28.10;56.10;;;;;;5052071;28;20025;-44
2021/06/15 07:24:03;;;;;;;8.07;3.80;;;28.20;55.80;;;;;;5052066;28;20033;-45
2021/06/15 07:26:29;;;;;;;4.68;3.40;;;28.20;55.80;;;;;;5051022;28;20056;-45
2021/06/15 07:28:54;;;;;;;6.93;3.70;;;28.30;55.80;;;;;;5051958;28;20070;-45
2021/06/15 07:31:20;;;;;;;4.82;3.58;;;28.40;55.70;;;;;;5052004;28;20040;-44
2021/06/15 07:33:45;;;;;;;6.22;3.70;;;28.30;56.30;;;;;;5044590;28;20025;-49
2021/06/15 07:36:11;;;;;;;5.40;3.42;;;28.20;55.80;;;;;;5031806;28;20026;-44
2021/06/15 07:38:36;;;;;;;5.53;3.63;;;28.00;56.10;;;;;;5031609;28;20029;-47
2021/06/15 07:41:02;;;;;;;4.10;3.20;;;27.70;56.70;;;;;;5031287;28;20025;-44
2021/06/15 07:43:28;;;;;;;5.22;3.33;;;27.70;56.90;;;;;;5031915;28;20029;-48
2021/06/15 07:45:54;;;;;;;6.30;3.40;;;27.70;56.80;;;;;;5031996;28;20037;-47
2021/06/15 07:48:19;;;;;;;5.60;3.92;;;28.00;56.60;;;;;;5031994;28;20029;-44
2021/06/15 07:50:45;;;;;;;4.45;3.53;;;28.40;56.10;;;;;;5032158;28;20076;-49
2021/06/15 07:53:11;;;;;;;5.80;3.67;;;28.50;56.10;;;;;;5031885;28;20057;-44
2021/06/15 07:55:36;;;;;;;5.95;4.07;;;28.40;56.00;;;;;;5033190;28;20025;-46
2021/06/15 07:58:02;;;;;;;4.05;3.13;;;28.20;56.00;;;;;;5035474;28;20032;-46
2021/06/15 08:00:27;;;;;;;5.22;3.17;;;28.40;56.00;;;;;;5035467;28;20502;-44
2021/06/15 08:02:53;;;;;;;5.55;3.33;;;28.90;55.60;;;;;;5035554;28;20030;-47
2021/06/15 08:05:18;;;;;;;5.85;3.63;;;29.60;54.90;;;;;;5035697;28;20105;-46
2021/06/15 08:07:49;;;;;;;4.40;3.30;;;30.40;53.60;;;;;;5035501;28;20457;-44
2021/06/15 08:10:15;;;;;;;5.22;3.70;;;31.60;52.40;;;;;;5034639;28;20017;-47
2021/06/15 08:12:41;;;;;;;4.47;3.25;;;32.50;51.10;;;;;;5035415;28;20025;-48
2021/06/15 08:15:07;;;;;;;5.07;3.35;;;32.90;50.30;;;;;;5035066;28;20038;-46
2021/06/15 08:17:33;;;;;;;5.28;3.30;;;33.40;49.70;;;;;;5035366;28;20051;-47
2021/06/15 08:19:58;;;;;;;5.38;3.65;;;33.90;49.30;;;;;;5034058;28;20025;-44
2021/06/15 08:22:24;;;;;;;5.97;3.45;;;34.60;47.70;;;;;;5035326;28;20017;-44
2021/06/15 08:24:49;;;;;;;6.82;3.45;;;35.00;48.00;;;;;;5035352;28;20033;-51
2021/06/15 08:27:15;;;;;;;7.68;3.90;;;34.90;47.90;;;;;;5034116;28;20107;-50
2021/06/15 08:29:41;;;;;;;5.18;3.75;;;34.60;47.90;;;;;;5034937;28;20143;-46
2021/06/15 08:32:06;;;;;;;4.72;3.78;;;34.10;48.20;;;;;;5035101;28;20479;-44
2021/06/15 08:34:34;;;;;;;4.40;3.67;;;33.60;48.20;;;;;;5035072;28;20037;-44
2021/06/15 08:37:01;;;;;;;4.57;3.33;;;33.10;48.40;;;;;;5034805;28;20021;-44
2021/06/15 08:39:26;;;;;;;4.10;3.28;;;32.90;48.80;;;;;;5034976;28;20025;-45
2021/06/15 08:41:52;;;;;;;5.38;3.30;;;32.70;48.70;;;;;;5034083;28;20380;-46
2021/06/15 08:44:17;;;;;;;3.95;3.20;;;32.40;48.90;;;;;;5034566;28;20088;-46
2021/06/15 08:46:45;;;;;;;7.60;3.90;;;32.10;49.70;;;;;;5034879;28;20072;-46
2021/06/15 08:49:10;;;;;;;4.75;3.15;;;31.80;49.20;;;;;;5033416;28;20029;-48
2021/06/15 08:51:36;;;;;;;4.93;3.05;;;31.50;49.40;;;;;;5034844;28;20037;-44
2021/06/15 08:54:05;;;;;;;5.85;2.95;;;31.20;49.70;;;;;;5034362;28;20030;-45
2021/06/15 08:56:33;;;;;;;6.32;3.72;;;30.90;49.90;;;;;;5033697;28;20358;-46
2021/06/15 08:59:17;;;;;;;5.40;3.60;;;30.40;50.40;;;;;;5034334;28;20025;-46
2021/06/15 09:01:45;;;;;;;3.83;2.80;;;30.10;51.40;;;;;;5034441;28;20045;-44
2021/06/15 09:04:10;;;;;;;4.50;3.25;;;30.00;51.80;;;;;;5034360;28;20060;-44
2021/06/15 09:06:36;;;;;;;4.18;3.00;;;29.90;52.20;;;;;;5034221;28;20052;-43
2021/06/15 09:09:03;;;;;;;4.20;3.20;;;29.70;52.60;;;;;;5034304;28;20025;-45
2021/06/15 09:11:47;;;;;;;4.75;3.22;;;29.70;53.10;;;;;;5033597;28;20029;-47
2021/06/15 09:14:13;;;;;;;6.68;3.67;;;29.70;54.10;;;;;;5034057;28;20575;-45
2021/06/15 09:16:46;;;;;;;6.88;3.33;;;29.90;53.50;;;;;;5034354;28;20108;-44
2021/06/15 09:19:21;;;;;;;4.60;3.42;;;30.60;53.00;;;;;;5034198;28;20022;-44
2021/06/15 09:21:53;;;;;;;5.22;3.28;;;31.20;52.40;;;;;;5034143;28;20096;-45
2021/06/15 09:24:23;;;;;;;7.35;4.07;;;31.60;51.80;;;;;;5033954;28;20028;-44
2021/06/15 09:27:01;;;;;;;5.47;4.00;;;31.40;51.60;;;;;;5033250;28;20113;-43
2021/06/15 09:29:44;;;;;;;6.05;3.22;;;31.10;52.10;;;;;;5033946;28;20385;-44
2021/06/15 09:32:26;;;;;;;3.38;3.05;;;30.90;52.70;;;;;;5033873;28;20022;-44
2021/06/15 09:35:01;;;;;;;3.50;3.20;;;30.80;52.90;;;;;;5033887;28;20029;-44
2021/06/15 09:37:41;;;;;;;4.20;3.28;;;30.60;53.00;;;;;;5014149;28;20022;-46
2021/06/15 09:40:15;;;;;;;3.95;3.42;;;30.40;52.80;;;;;;5020657;28;20377;-44
2021/06/15 09:42:52;;;;;;;6.70;3.58;;;30.10;53.30;;;;;;5033766;28;20031;-45
2021/06/15 09:45:24;;;;;;;3.80;3.03;;;29.90;53.80;;;;;;5033439;28;20025;-46
2021/06/15 09:47:51;;;;;;;3.33;3.00;;;29.70;53.80;;;;;;5033766;28;20029;-43
2021/06/15 09:50:21;;;;;;;3.83;2.92;;;29.70;53.80;;;;;;5033462;28;20043;-46
2021/06/15 09:52:47;;;;;;;4.78;3.65;;;29.80;53.80;;;;;;5033691;28;20021;-46
2021/06/15 09:55:13;;;;;;;5.03;3.20;;;29.90;54.50;;;;;;5032255;28;20529;-45
2021/06/15 09:57:44;;;;;;;4.32;3.25;;;30.00;53.80;;;;;;5033858;28;20056;-46
2021/06/15 10:00:20;;;;;;;6.97;3.53;;;30.10;54.00;;;;;;5033073;28;20599;-44
2021/06/15 10:02:51;;;;;;;4.32;3.45;;;30.10;54.10;;;;;;5033513;28;20078;-46
2021/06/15 10:05:27;;;;;;;5.80;3.35;;;29.90;54.20;;;;;;5033165;28;20033;-46
2021/06/15 10:07:55;;;;;;;5.15;3.40;;;29.60;54.90;;;;;;5033366;28;20076;-47
2021/06/15 10:10:22;;;;;;;4.82;3.55;;;29.40;54.70;;;;;;5032232;28;20029;-45
2021/06/15 10:12:51;;;;;;;4.15;3.45;;;29.30;55.70;;;;;;5031941;28;20476;-45
2021/06/15 10:15:17;;;;;;;6.13;3.55;;;29.20;55.30;;;;;;5032911;28;20022;-47
2021/06/15 10:17:45;;;;;;;4.57;3.28;;;29.00;55.40;;;;;;5032342;28;20075;-45
2021/06/15 10:20:15;;;;;;;5.75;3.08;;;28.70;55.60;;;;;;5032544;28;20153;-44
2021/06/15 10:22:43;;;;;;;4.45;3.08;;;28.70;55.90;;;;;;5033128;28;20022;-48
2021/06/15 10:25:09;;;;;;;6.22;3.50;;;28.70;56.10;;;;;;5031906;28;20022;-46
2021/06/15 10:27:35;;;;;;;8.40;3.38;;;28.40;56.80;;;;;;5032914;28;20481;-44
2021/06/15 10:30:01;;;;;;;5.68;3.65;;;28.50;56.60;;;;;;5032903;28;20045;-44
2021/06/15 10:32:28;;;;;;;5.60;3.40;;;28.60;56.80;;;;;;5032713;28;20034;-44
2021/06/15 10:35:07;;;;;;;4.82;3.00;;;28.70;56.70;;;;;;5032678;28;20028;-47
2021/06/15 10:37:33;;;;;;;5.00;3.10;;;28.80;56.90;;;;;;5032816;28;20216;-45
2021/06/15 10:40:06;;;;;;;5.88;3.30;;;28.70;57.10;;;;;;5031885;28;20033;-43
2021/06/15 10:42:31;;;;;;;5.97;3.83;;;28.70;57.10;;;;;;5032809;28;20060;-44
2021/06/15 10:45:12;;;;;;;8.23;4.22;;;28.60;57.20;;;;;;5032624;28;20554;-46
2021/06/15 10:47:40;;;;;;;4.13;3.22;;;28.50;58.30;;;;;;5032563;28;20047;-44
2021/06/15 10:50:07;;;;;;;5.35;2.90;;;28.30;58.10;;;;;;5032649;28;20025;-46
2021/06/15 10:53:01;;;;;;;4.55;3.58;;;28.30;58.00;;;;;;5032647;28;20032;-45
2021/06/15 10:55:47;;;;;;;3.92;3.15;;;28.30;58.20;;;;;;5048567;28;20037;-45
2021/06/15 10:58:15;;;;;;;4.07;3.40;;;28.00;58.80;;;;;;5052509;28;20028;-46
2021/06/15 11:00:50;;;;;;;5.72;3.03;;;27.70;58.70;;;;;;5052250;28;20491;-45
2021/06/15 11:03:15;;;;;;;4.40;3.60;;;27.60;59.10;;;;;;5052315;28;20025;-47
2021/06/15 11:05:51;;;;;;;5.70;3.53;;;27.50;59.20;;;;;;5052365;28;20413;-44
2021/06/15 11:08:19;;;;;;;;;;;27.50;59.50;;;;;;5052644;28;20046;-48
2021/06/15 11:10:51;;;;;;;3.58;2.97;;;27.60;59.80;;;;;;5051415;28;19912;-46
2021/06/15 11:13:17;;;;;;;5.10;3.08;;;27.50;59.30;;;;;;5052276;28;20028;-46
2021/06/15 11:16:00;;;;;;;4.03;3.33;;;27.70;59.30;;;;;;5052300;28;20033;-46
2021/06/15 11:18:26;;;;;;;5.13;3.30;;;27.60;59.30;;;;;;5052036;28;20017;-46
2021/06/15 11:20:52;;;;;;;4.13;2.90;;;27.50;59.60;;;;;;5052278;28;20373;-44
2021/06/15 11:23:18;;;;;;;3.08;2.78;;;27.50;59.70;;;;;;5052194;28;20104;-45
2021/06/15 11:25:55;;;;;;;3.97;2.85;;;27.50;59.20;;;;;;5051171;28;20077;-46
2021/06/15 11:28:42;;;;;;;4.63;3.15;;;27.70;59.00;;;;;;5052196;28;20317;-44
2021/06/15 11:31:17;;;;;;;5.47;3.40;;;27.90;58.80;;;;;;5055629;28;20104;-43
2021/06/15 11:34:01;;;;;;;5.18;2.97;;;28.00;59.10;;;;;;5055958;28;20525;-44
2021/06/15 11:36:39;;;;;;;4.10;3.45;;;27.90;59.80;;;;;;5043064;28;20021;-43
2021/06/15 11:39:23;;;;;;;3.92;3.13;;;27.90;59.50;;;;;;5035807;28;20366;-44
2021/06/15 11:42:16;;;;;;;3.75;3.08;;;27.70;60.00;;;;;;5035272;28;20420;-44
2021/06/15 11:45:03;;;;;;;4.15;2.97;;;27.80;60.60;;;;;;5035981;28;20021;-44
2021/06/15 11:47:45;;;;;;;4.07;3.17;;;27.60;59.80;;;;;;5035713;28;20033;-44
2021/06/15 11:50:30;;;;;;;4.75;2.88;;;27.40;60.20;;;;;;5035719;28;20032;-48
2021/06/15 11:52:59;;;;;;;7.35;3.80;;;27.20;61.40;;;;;;5035912;28;20037;-46
2021/06/15 11:55:44;;;;;;;5.25;3.15;;;27.10;61.10;;;;;;5051674;28;20507;-43
2021/06/15 11:58:19;;;;;;;4.03;3.50;;;27.00;61.80;;;;;;5036469;28;20061;-47
2021/06/15 12:00:49;;;;;;;5.35;3.20;;;26.90;61.70;;;;;;5035578;28;20088;-49
2021/06/15 12:03:17;;;;;;;3.83;3.00;;;27.00;61.60;;;;;;5035598;28;20021;-44
2021/06/15 12:05:44;;;;;;;7.43;3.25;;;27.10;61.20;;;;;;5035645;28;20036;-45
2021/06/15 12:08:10;;;;;;;7.25;3.55;;;27.20;61.10;;;;;;5035718;28;20530;-43
2021/06/15 12:10:37;;;;;;;6.55;4.18;;;27.10;60.80;;;;;;5034356;28;20033;-45
2021/06/15 12:13:20;;;;;;;6.07;3.67;;;27.10;60.90;;;;;;5035291;28;20056;-46
2021/06/15 12:15:53;;;;;;;6.95;3.70;;;27.20;60.90;;;;;;5035278;28;20013;-45
2021/06/15 12:18:30;;;;;;;5.78;3.40;;;27.30;60.80;;;;;;5035308;28;20022;-45
2021/06/15 12:21:02;;;;;;;5.90;3.03;;;27.20;60.70;;;;;;5034073;28;20026;-46
2021/06/15 12:23:38;;;;;;;5.55;3.72;;;27.30;60.40;;;;;;5035271;28;20045;-43
2021/06/15 12:26:16;;;;;;;4.55;4.15;;;27.40;60.40;;;;;;5034308;28;20076;-43
2021/06/15 12:28:51;;;;;;;4.47;3.40;;;27.40;60.80;;;;;;5035249;28;20025;-44
2021/06/15 12:31:37;;;;;;;3.97;3.47;;;27.40;60.70;;;;;;5035060;28;20021;-46
2021/06/15 12:34:09;;;;;;;9.30;3.80;;;27.20;61.30;;;;;;5035037;28;20029;-48
2021/06/15 12:36:37;;;;;;;4.68;3.45;;;27.20;61.20;;;;;;5034815;28;20026;-45
2021/06/15 12:39:26;;;;;;;3.45;3.15;;;27.40;60.90;;;;;;5035142;28;20022;-46
2021/06/15 12:41:53;;;;;;;5.75;2.88;;;27.70;60.90;;;;;;5033343;28;20028;-49
2021/06/15 12:44:24;;;;;;;6.90;3.45;;;27.80;60.20;;;;;;5031215;28;20037;-46
2021/06/15 12:46:58;;;;;;;6.22;3.58;;;27.70;60.20;;;;;;5034644;28;20029;-45
2021/06/15 12:49:25;;;;;;;6.55;3.35;;;27.80;60.90;;;;;;5034492;28;20112;-46
2021/06/15 12:52:05;;;;;;;6.38;3.95;;;27.80;60.10;;;;;;5034698;28;20503;-44
2021/06/15 12:54:37;;;;;;;6.85;4.43;;;27.60;60.30;;;;;;5035698;28;20033;-47
2021/06/15 12:57:06;;;;;;;4.75;4.28;;;27.20;60.70;;;;;;5033558;28;20028;-45
2021/06/15 12:59:33;;;;;;;6.00;4.00;;;26.90;61.30;;;;;;5034238;28;20132;-48
2021/06/15 13:02:09;;;;;;;5.22;3.78;;;26.80;62.40;;;;;;5034571;28;20530;-44
2021/06/15 13:05:03;;;;;;;4.07;3.42;;;26.90;61.80;;;;;;5034150;28;20021;-43